createdAt,value
2019-04-14T00:00:42.641Z,-1.00
2019-04-14T00:03:34.773Z,-1.00
2019-04-14T00:06:04.947Z,-1.00
2019-04-14T00:08:37.186Z,-1.10
2019-04-14T00:11:06.203Z,-1.10
2019-04-14T00:13:34.948Z,-1.10
2019-04-14T00:16:05.411Z,-1.10
2019-04-14T00:18:33.919Z,-1.10
2019-04-14T00:21:02.350Z,-1.10
2019-04-14T00:23:37.001Z,-1.10
2019-04-14T00:26:27.398Z,-1.20
2019-04-14T00:28:58.337Z,-1.20
2019-04-14T00:31:28.587Z,-1.10
2019-04-14T00:33:59.074Z,-1.20
2019-04-14T00:36:32.603Z,-1.10
2019-04-14T00:39:05.467Z,-1.10
2019-04-14T00:41:50.282Z,-1.20
2019-04-14T00:44:19.028Z,-1.10
2019-04-14T00:47:04.950Z,-1.10
2019-04-14T00:49:37.873Z,-1.10
2019-04-14T00:52:06.332Z,-1.00
2019-04-14T00:54:41.394Z,-1.00
2019-04-14T00:57:13.677Z,-1.00
2019-04-14T00:59:42.236Z,-1.00
2019-04-14T01:02:12.443Z,-1.00
2019-04-14T01:04:41.068Z,-0.90
2019-04-14T01:07:15.240Z,-0.90
2019-04-14T01:09:44.212Z,-0.80
2019-04-14T01:12:16.990Z,-0.80
2019-04-14T01:14:49.578Z,-0.70
2019-04-14T01:17:22.028Z,-0.70
2019-04-14T01:19:57.419Z,-0.70
2019-04-14T01:22:27.246Z,-0.70
2019-04-14T01:25:02.306Z,-0.70
2019-04-14T01:27:36.290Z,-0.70
2019-04-14T01:30:02.668Z,-0.70
2019-04-14T01:32:35.016Z,-0.70
2019-04-14T01:35:05.347Z,-0.60
2019-04-14T01:37:37.582Z,-0.60
2019-04-14T01:40:10.218Z,-0.60
2019-04-14T01:42:40.226Z,-0.60
2019-04-14T01:45:10.566Z,-0.60
2019-04-14T01:47:48.991Z,-0.60
2019-04-14T01:50:19.233Z,-0.60
2019-04-14T01:52:54.977Z,-0.60
2019-04-14T01:55:35.194Z,-0.60
2019-04-14T01:58:12.207Z,-0.60
2019-04-14T02:00:42.495Z,-0.70
2019-04-14T02:03:12.841Z,-0.70
2019-04-14T02:06:00.343Z,-0.70
2019-04-14T02:08:30.821Z,-0.70
2019-04-14T02:11:07.421Z,-0.70
2019-04-14T02:13:40.022Z,-0.70
2019-04-14T02:16:22.922Z,-0.70
2019-04-14T02:18:42.748Z,-0.70
2019-04-14T02:21:15.545Z,-0.80
2019-04-14T02:23:45.614Z,-0.80
2019-04-14T02:26:15.677Z,-0.70
2019-04-14T02:28:55.540Z,-0.70
2019-04-14T02:31:45.365Z,-0.70
2019-04-14T02:34:25.879Z,-0.80
2019-04-14T02:36:58.702Z,-0.80
2019-04-14T02:39:38.968Z,-0.80
2019-04-14T02:42:15.435Z,-0.80
2019-04-14T02:44:34.222Z,-0.80
2019-04-14T02:47:11.658Z,-0.80
2019-04-14T02:52:04.966Z,-0.80
2019-04-14T03:02:30.505Z,-0.80
2019-04-14T03:10:25.919Z,-0.80
2019-04-14T03:13:02.286Z,-0.90
2019-04-14T03:15:29.569Z,-0.90
2019-04-14T03:18:24.032Z,-0.90
2019-04-14T03:20:49.958Z,-0.90
2019-04-14T03:23:34.876Z,-0.90
2019-04-14T03:26:11.763Z,-0.90
2019-04-14T03:28:45.939Z,-0.90
2019-04-14T03:37:24.080Z,-0.90
2019-04-14T03:39:05.817Z,-1.00
2019-04-14T03:41:38.668Z,-1.00
2019-04-14T03:44:23.444Z,-1.00
2019-04-14T03:46:49.010Z,-1.00
2019-04-14T03:49:32.168Z,-1.00
2019-04-14T03:52:02.459Z,-1.00
2019-04-14T03:54:36.586Z,-1.10
2019-04-14T03:56:48.924Z,-1.10
2019-04-14T03:59:22.265Z,-1.10
2019-04-14T04:01:52.254Z,-1.10
2019-04-14T04:04:20.836Z,-1.10
2019-04-14T04:06:49.434Z,-1.10
2019-04-14T04:09:21.438Z,-1.10
2019-04-14T04:11:54.125Z,-1.10
2019-04-14T04:14:25.474Z,-1.10
2019-04-14T04:16:59.469Z,-1.10
2019-04-14T04:19:46.978Z,-1.10
2019-04-14T04:22:30.323Z,-1.10
2019-04-14T04:25:07.316Z,-1.20
2019-04-14T04:27:40.386Z,-1.20
2019-04-14T04:30:23.116Z,-1.20
2019-04-14T04:33:08.727Z,-1.20
2019-04-14T04:35:52.183Z,-1.20
2019-04-14T04:38:41.987Z,-1.20
2019-04-14T04:41:14.698Z,-1.10
2019-04-14T04:43:47.251Z,-1.10
2019-04-14T04:46:21.935Z,-1.10
2019-04-14T04:49:03.394Z,-1.10
2019-04-14T04:51:26.813Z,-1.00
2019-04-14T04:53:55.307Z,-1.00
2019-04-14T04:56:23.745Z,-1.00
2019-04-14T04:58:56.890Z,-0.90
2019-04-14T05:01:31.786Z,-0.90
2019-04-14T05:04:04.593Z,-0.80
2019-04-14T05:06:43.641Z,-0.80
2019-04-14T05:09:29.588Z,-0.70
2019-04-14T05:12:17.322Z,-0.60
2019-04-14T05:14:56.701Z,-0.60
2019-04-14T05:17:29.948Z,-0.50
2019-04-14T05:20:05.289Z,-0.50
2019-04-14T05:22:37.647Z,-0.40
2019-04-14T05:25:09.930Z,-0.40
2019-04-14T05:27:43.073Z,-0.40
2019-04-14T05:30:13.426Z,-0.30
2019-04-14T05:32:45.537Z,-0.30
2019-04-14T05:35:22.770Z,-0.20
2019-04-14T05:38:04.092Z,-0.20
2019-04-14T05:40:27.761Z,-0.10
2019-04-14T05:42:56.341Z,0.10
2019-04-14T05:45:28.372Z,0.30
2019-04-14T05:47:57.365Z,0.30
2019-04-14T05:50:27.109Z,0.40
2019-04-14T05:52:58.508Z,0.50
2019-04-14T05:55:31.209Z,0.50
2019-04-14T05:58:05.821Z,0.50
2019-04-14T06:00:46.343Z,0.60
2019-04-14T06:03:19.073Z,0.70
2019-04-14T06:05:52.169Z,0.90
2019-04-14T06:08:20.582Z,1.00
2019-04-14T06:10:50.937Z,1.10
2019-04-14T06:13:20.502Z,1.20
2019-04-14T06:15:48.966Z,1.30
2019-04-14T06:18:22.197Z,1.30
2019-04-14T06:20:53.350Z,1.40
2019-04-14T06:23:24.528Z,1.50
2019-04-14T06:25:58.535Z,1.50
2019-04-14T06:28:26.971Z,1.60
2019-04-14T06:31:16.133Z,1.60
2019-04-14T06:33:51.866Z,1.60
2019-04-14T06:36:38.510Z,1.60
2019-04-14T06:39:21.186Z,1.70
2019-04-14T06:41:49.626Z,1.80
2019-04-14T06:44:19.541Z,1.90
2019-04-14T06:46:49.019Z,2.00
2019-04-14T06:49:17.482Z,2.20
2019-04-14T06:51:54.623Z,2.30
2019-04-14T06:54:25.769Z,2.40
2019-04-14T06:56:55.845Z,2.50
2019-04-14T06:59:24.274Z,2.50
2019-04-14T07:01:52.694Z,2.40
2019-04-14T07:04:22.283Z,2.30
2019-04-14T07:06:56.343Z,2.40
2019-04-14T07:09:25.584Z,2.70
2019-04-14T07:11:56.864Z,2.80
2019-04-14T07:14:31.946Z,2.80
2019-04-14T07:17:03.371Z,2.80
2019-04-14T07:19:37.119Z,2.90
2019-04-14T07:22:08.453Z,3.00
2019-04-14T07:24:36.890Z,3.10
2019-04-14T07:27:05.320Z,3.10
2019-04-14T07:29:38.724Z,3.10
2019-04-14T07:32:20.965Z,3.10
2019-04-14T07:34:56.947Z,3.10
2019-04-14T07:37:32.800Z,3.40
2019-04-14T07:40:23.923Z,3.60
2019-04-14T07:42:51.369Z,3.50
2019-04-14T07:45:37.765Z,3.50
2019-04-14T07:48:11.281Z,3.40
2019-04-14T07:50:49.929Z,3.40
2019-04-14T07:53:29.839Z,3.60
2019-04-14T07:56:09.296Z,3.80
2019-04-14T07:58:56.947Z,4.00
2019-04-14T08:01:33.838Z,4.10
2019-04-14T08:04:06.697Z,4.10
2019-04-14T08:06:38.507Z,4.00
2019-04-14T08:09:07.482Z,3.90
2019-04-14T08:11:41.273Z,3.70
2019-04-14T08:14:12.417Z,3.70
2019-04-14T08:16:45.753Z,3.70
2019-04-14T08:19:15.834Z,3.60
2019-04-14T08:21:47.051Z,3.60
2019-04-14T08:24:20.113Z,3.70
2019-04-14T08:26:50.226Z,3.70
2019-04-14T08:29:21.182Z,3.90
2019-04-14T08:31:55.636Z,3.80
2019-04-14T08:34:26.764Z,3.60
2019-04-14T08:37:02.818Z,3.60
2019-04-14T08:39:34.044Z,3.60
2019-04-14T08:42:04.164Z,3.80
2019-04-14T08:44:39.527Z,3.80
2019-04-14T08:47:28.406Z,3.90
2019-04-14T08:50:16.211Z,3.90
2019-04-14T08:52:46.288Z,3.90
2019-04-14T08:55:19.372Z,4.00
2019-04-14T08:57:58.496Z,4.10
2019-04-14T09:00:28.565Z,4.00
2019-04-14T09:03:04.369Z,4.00
2019-04-14T09:05:56.915Z,4.00
2019-04-14T09:08:30.000Z,4.10
2019-04-14T09:11:00.070Z,4.20
2019-04-14T09:13:31.411Z,4.30
2019-04-14T09:16:01.474Z,4.50
2019-04-14T09:18:32.867Z,4.40
2019-04-14T09:21:01.360Z,4.10
2019-04-14T09:23:35.513Z,3.90
2019-04-14T09:26:05.922Z,3.80
2019-04-14T09:28:40.308Z,3.80
2019-04-14T09:31:10.380Z,4.00
2019-04-14T09:33:44.553Z,4.10
2019-04-14T09:36:15.885Z,4.00
2019-04-14T09:38:47.249Z,4.10
2019-04-14T09:41:15.961Z,4.10
2019-04-14T09:43:44.377Z,4.10
2019-04-14T09:46:23.442Z,4.10
2019-04-14T09:48:53.478Z,4.00
2019-04-14T09:51:25.495Z,4.10
2019-04-14T09:53:54.218Z,4.20
2019-04-14T09:56:28.536Z,4.30
2019-04-14T09:59:01.338Z,4.20
2019-04-14T10:01:27.097Z,4.10
2019-04-14T10:04:03.953Z,4.10
2019-04-14T10:06:35.464Z,4.10
2019-04-14T10:09:05.466Z,4.20
2019-04-14T10:11:48.439Z,4.10
2019-04-14T10:14:17.823Z,4.10
2019-04-14T10:16:46.260Z,4.20
2019-04-14T10:19:16.325Z,4.30
2019-04-14T10:21:44.740Z,4.40
2019-04-14T10:24:21.982Z,4.40
2019-04-14T10:26:53.409Z,4.40
2019-04-14T10:29:36.937Z,4.40
2019-04-14T10:32:05.350Z,4.50
2019-04-14T10:34:35.733Z,4.60
2019-04-14T10:37:08.907Z,4.90
2019-04-14T10:39:37.370Z,5.20
2019-04-14T10:42:10.521Z,5.40
2019-04-14T10:44:39.263Z,5.70
2019-04-14T10:47:07.678Z,5.80
2019-04-14T10:49:39.138Z,5.80
2019-04-14T10:52:10.203Z,5.80
2019-04-14T10:54:38.630Z,5.70
2019-04-14T10:57:07.041Z,5.50
2019-04-14T10:59:40.033Z,5.40
2019-04-14T11:02:11.214Z,5.40
2019-04-14T11:04:39.637Z,5.40
2019-04-14T11:07:09.694Z,5.40
2019-04-14T11:09:38.104Z,5.40
2019-04-14T11:12:06.525Z,5.30
2019-04-14T11:14:34.941Z,5.30
2019-04-14T11:17:03.345Z,5.10
2019-04-14T11:19:34.066Z,5.10
2019-04-14T11:22:05.002Z,5.00
2019-04-14T11:24:36.543Z,5.00
2019-04-14T11:27:05.389Z,5.10
2019-04-14T11:29:35.265Z,5.20
2019-04-14T11:32:24.926Z,5.30
2019-04-14T11:34:54.990Z,5.50
2019-04-14T11:37:41.482Z,5.60
2019-04-14T11:40:12.165Z,5.70
2019-04-14T11:42:52.204Z,5.70
2019-04-14T11:45:17.277Z,5.80
2019-04-14T11:47:45.685Z,5.70
2019-04-14T11:50:15.833Z,5.70
2019-04-14T11:52:46.913Z,5.70
2019-04-14T11:55:24.027Z,5.70
2019-04-14T11:57:58.467Z,5.70
2019-04-14T12:00:37.826Z,5.60
2019-04-14T12:03:19.484Z,5.50
2019-04-14T12:05:49.556Z,5.50
2019-04-14T12:08:25.733Z,5.50
2019-04-14T12:10:56.029Z,5.50
2019-04-14T12:13:28.742Z,5.50
2019-04-14T12:15:59.688Z,5.60
2019-04-14T12:18:33.118Z,5.60
2019-04-14T12:21:01.553Z,5.60
2019-04-14T12:23:30.220Z,5.60
2019-04-14T12:26:05.988Z,5.60
2019-04-14T12:28:34.581Z,5.50
2019-04-14T12:31:04.153Z,5.40
2019-04-14T12:33:35.495Z,5.40
2019-04-14T12:36:06.997Z,5.30
2019-04-14T12:38:38.203Z,5.30
2019-04-14T12:41:12.505Z,5.30
2019-04-14T12:43:48.325Z,5.20
2019-04-14T12:46:24.483Z,5.10
2019-04-14T12:49:03.842Z,5.00
2019-04-14T12:51:50.494Z,5.00
2019-04-14T12:54:23.462Z,4.90
2019-04-14T12:56:51.894Z,4.90
2019-04-14T12:59:24.134Z,4.90
2019-04-14T13:01:57.197Z,5.00
2019-04-14T13:04:29.673Z,5.00
2019-04-14T13:07:04.209Z,5.10
2019-04-14T13:09:35.309Z,5.10
2019-04-14T13:12:03.744Z,5.10
2019-04-14T13:14:34.033Z,5.10
2019-04-14T13:17:05.150Z,5.20
2019-04-14T13:19:33.662Z,5.20
2019-04-14T13:22:03.646Z,5.20
2019-04-14T13:24:34.813Z,5.20
2019-04-14T13:27:04.913Z,5.20
2019-04-14T13:29:35.886Z,5.10
2019-04-14T13:32:08.069Z,5.10
2019-04-14T13:34:41.110Z,5.20
2019-04-14T13:37:11.177Z,5.20
2019-04-14T13:39:42.286Z,5.20
2019-04-14T13:42:12.344Z,5.10
2019-04-14T13:44:40.752Z,5.10
2019-04-14T13:47:13.678Z,5.10
2019-04-14T13:49:44.778Z,5.20
2019-04-14T13:52:13.214Z,5.20
2019-04-14T13:54:44.706Z,5.30
2019-04-14T13:57:13.663Z,5.20
2019-04-14T13:59:44.746Z,5.20
2019-04-14T14:02:15.865Z,5.20
2019-04-14T14:04:47.058Z,5.20
2019-04-14T14:07:15.477Z,5.20
2019-04-14T14:09:48.248Z,5.20
2019-04-14T14:12:30.098Z,5.20
2019-04-14T14:15:16.088Z,5.20
2019-04-14T14:17:46.495Z,5.20
2019-04-14T14:20:28.792Z,5.20
2019-04-14T14:23:18.349Z,5.30
2019-04-14T14:26:06.846Z,5.40
2019-04-14T14:28:39.603Z,5.40
2019-04-14T14:31:10.930Z,5.50
2019-04-14T14:33:39.716Z,5.50
2019-04-14T14:36:08.139Z,5.60
2019-04-14T14:38:42.442Z,5.70
2019-04-14T14:41:15.521Z,5.60
2019-04-14T14:43:43.965Z,5.40
2019-04-14T14:46:22.124Z,5.30
2019-04-14T14:49:11.416Z,5.10
2019-04-14T14:51:50.258Z,4.90
2019-04-14T14:54:21.437Z,4.70
2019-04-14T14:56:52.598Z,4.50
2019-04-14T14:59:21.058Z,4.50
2019-04-14T15:01:52.201Z,4.50
2019-04-14T15:04:25.202Z,4.50
2019-04-14T15:06:55.249Z,4.50
2019-04-14T15:09:23.945Z,4.50
2019-04-14T15:12:01.041Z,4.50
2019-04-14T15:14:29.456Z,4.60
2019-04-14T15:17:00.661Z,4.60
2019-04-14T15:19:29.682Z,4.60
2019-04-14T15:22:01.002Z,4.70
2019-04-14T15:24:34.055Z,4.80
2019-04-14T15:27:05.529Z,4.80
2019-04-14T15:29:42.237Z,4.80
2019-04-14T15:32:12.238Z,4.70
2019-04-14T15:34:43.564Z,4.70
2019-04-14T15:37:11.994Z,4.70
2019-04-14T15:39:42.058Z,4.60
2019-04-14T15:42:10.483Z,4.60
2019-04-14T15:44:38.904Z,4.60
2019-04-14T15:47:11.733Z,4.60
2019-04-14T15:49:40.754Z,4.50
2019-04-14T15:52:09.167Z,4.50
2019-04-14T15:54:37.601Z,4.40
2019-04-14T15:57:26.929Z,4.40
2019-04-14T15:59:59.932Z,4.30
2019-04-14T16:02:29.988Z,4.30
2019-04-14T16:05:02.937Z,4.30
2019-04-14T16:07:33.029Z,4.20
2019-04-14T16:10:06.981Z,4.20
2019-04-14T16:12:37.069Z,4.20
2019-04-14T16:15:20.118Z,4.20
2019-04-14T16:17:51.225Z,4.20
2019-04-14T16:20:32.007Z,4.20
2019-04-14T16:23:00.453Z,4.10
2019-04-14T16:25:36.483Z,4.10
2019-04-14T16:28:09.249Z,4.00
2019-04-14T16:30:44.933Z,3.90
2019-04-14T16:33:19.741Z,3.90
2019-04-14T16:35:52.542Z,3.80
2019-04-14T16:38:20.960Z,3.90
2019-04-14T16:40:49.390Z,3.80
2019-04-14T16:43:17.806Z,3.80
2019-04-14T16:45:46.277Z,3.80
2019-04-14T16:48:19.153Z,3.80
2019-04-14T16:50:47.577Z,3.80
2019-04-14T16:53:26.366Z,3.80
2019-04-14T16:55:58.885Z,3.80
2019-04-14T16:58:35.567Z,3.80
2019-04-14T17:01:23.882Z,3.70
2019-04-14T17:03:52.310Z,3.70
2019-04-14T17:06:21.466Z,3.70
2019-04-14T17:09:00.845Z,3.70
2019-04-14T17:11:29.276Z,3.70
2019-04-14T17:13:59.338Z,3.70
2019-04-14T17:16:38.482Z,3.70
2019-04-14T17:19:16.224Z,3.60
2019-04-14T17:21:48.944Z,3.60
2019-04-14T17:24:23.770Z,3.60
2019-04-14T17:26:53.822Z,3.60
2019-04-14T17:29:38.893Z,3.60
2019-04-14T17:32:21.303Z,3.60
2019-04-14T17:35:09.134Z,3.60
2019-04-14T17:37:54.279Z,3.60
2019-04-14T17:40:42.294Z,3.70
2019-04-14T17:43:15.210Z,3.70
2019-04-14T17:46:03.684Z,3.70
2019-04-14T17:48:41.868Z,3.70
2019-04-14T17:51:17.533Z,3.70
2019-04-14T17:53:53.307Z,3.80
2019-04-14T17:56:32.122Z,3.80
2019-04-14T17:59:05.177Z,3.80
2019-04-14T18:01:52.829Z,3.80
2019-04-14T18:04:22.895Z,3.70
2019-04-14T18:06:57.237Z,3.80
2019-04-14T18:09:28.879Z,3.70
2019-04-14T18:12:01.928Z,3.70
2019-04-14T18:14:38.046Z,3.70
2019-04-14T18:17:18.250Z,3.70
2019-04-14T18:19:57.150Z,3.60
2019-04-14T18:22:28.503Z,3.60
2019-04-14T18:24:56.924Z,3.50
2019-04-14T18:27:25.354Z,3.50
2019-04-14T18:29:58.341Z,3.50
2019-04-14T18:32:40.158Z,3.40
2019-04-14T18:35:10.456Z,3.40
2019-04-14T18:37:55.586Z,3.40
2019-04-14T18:40:29.886Z,3.40
2019-04-14T18:43:12.395Z,3.30
2019-04-14T18:45:48.304Z,3.30
2019-04-14T18:48:19.649Z,3.30
2019-04-14T18:51:05.049Z,3.20
2019-04-14T18:53:55.745Z,3.20
2019-04-14T18:56:47.042Z,3.20
2019-04-14T18:59:28.741Z,3.30
2019-04-14T19:02:01.153Z,3.30
2019-04-14T19:04:29.592Z,3.40
2019-04-14T19:07:02.312Z,3.40
2019-04-14T19:09:32.395Z,3.40
2019-04-14T19:12:20.707Z,3.40
2019-04-14T19:14:50.810Z,3.40
2019-04-14T19:17:32.641Z,3.40
2019-04-14T19:20:05.057Z,3.40
2019-04-14T19:22:33.480Z,3.40
2019-04-14T19:25:08.460Z,3.40
2019-04-14T19:27:39.774Z,3.40
2019-04-14T19:30:08.636Z,3.40
2019-04-14T19:32:38.705Z,3.40
2019-04-14T19:35:07.462Z,3.40
2019-04-14T19:37:35.885Z,3.40
2019-04-14T19:40:08.738Z,3.40
2019-04-14T19:42:37.165Z,3.40
2019-04-14T19:45:11.155Z,3.40
2019-04-14T19:47:39.582Z,3.40
2019-04-14T19:50:10.344Z,3.40
2019-04-14T19:52:39.498Z,3.40
2019-04-14T19:55:19.853Z,3.40
2019-04-14T19:57:38.627Z,3.40
2019-04-14T20:00:11.245Z,3.40
2019-04-14T20:02:43.971Z,3.40
2019-04-14T20:05:16.029Z,3.40
2019-04-14T20:07:47.127Z,3.40
2019-04-14T20:10:15.842Z,3.40
2019-04-14T20:12:44.269Z,3.40
2019-04-14T20:15:17.459Z,3.40
2019-04-14T20:17:47.513Z,3.40
2019-04-14T20:20:34.386Z,3.40
2019-04-14T20:23:07.327Z,3.40
2019-04-14T20:25:53.922Z,3.30
2019-04-14T20:28:29.990Z,3.40
2019-04-14T20:31:19.162Z,3.40
2019-04-14T20:33:49.214Z,3.40
2019-04-14T20:36:23.533Z,3.40
2019-04-14T20:38:51.961Z,3.40
2019-04-14T20:41:20.469Z,3.40
2019-04-14T20:43:48.881Z,3.40
2019-04-14T20:46:17.315Z,3.40
2019-04-14T20:48:48.909Z,3.40
2019-04-14T20:51:20.433Z,3.40
2019-04-14T20:53:48.850Z,3.50
2019-04-14T20:56:17.298Z,3.50
2019-04-14T20:58:51.466Z,3.40
2019-04-14T21:01:30.199Z,3.50
2019-04-14T21:04:02.993Z,3.50
2019-04-14T21:06:39.011Z,3.50
2019-04-14T21:09:25.442Z,3.50
2019-04-14T21:12:00.849Z,3.50
2019-04-14T21:14:45.757Z,3.60
2019-04-14T21:17:32.131Z,3.60
2019-04-14T21:20:08.577Z,3.60
2019-04-14T21:22:55.188Z,3.60
2019-04-14T21:25:37.433Z,3.50
2019-04-14T21:28:16.172Z,3.60
2019-04-14T21:30:52.445Z,3.60
2019-04-14T21:33:41.577Z,3.60
2019-04-14T21:36:30.385Z,3.60
2019-04-14T21:39:18.422Z,3.60
2019-04-14T21:41:48.493Z,3.60
2019-04-14T21:44:22.855Z,3.60
2019-04-14T21:46:52.936Z,3.60
2019-04-14T21:49:21.621Z,3.60
2019-04-14T21:52:02.982Z,3.60
2019-04-14T21:54:33.054Z,3.60
2019-04-14T21:57:14.473Z,3.60
2019-04-14T22:00:05.334Z,3.60
2019-04-14T22:02:54.541Z,3.60
2019-04-14T22:05:30.813Z,3.70
2019-04-14T22:08:16.004Z,3.70
2019-04-14T22:11:02.443Z,3.60
2019-04-14T22:13:33.652Z,3.70
2019-04-14T22:16:02.318Z,3.70
2019-04-14T22:18:35.571Z,3.70
2019-04-14T22:21:04.052Z,3.70
2019-04-14T22:23:32.952Z,3.80
2019-04-14T22:26:05.625Z,3.80
2019-04-14T22:28:37.263Z,3.80
2019-04-14T22:31:09.890Z,3.70
2019-04-14T22:33:38.325Z,3.80
2019-04-14T22:36:11.310Z,3.70
2019-04-14T22:38:42.709Z,3.80
2019-04-14T22:41:15.470Z,3.80
2019-04-14T22:43:43.907Z,3.80
2019-04-14T22:46:14.746Z,3.80
2019-04-14T22:48:44.813Z,3.80
2019-04-14T22:51:16.477Z,3.80
2019-04-14T22:53:46.545Z,3.80
2019-04-14T22:56:15.048Z,3.80
2019-04-14T22:58:49.529Z,3.80
2019-04-14T23:01:31.236Z,3.80
2019-04-14T23:04:22.214Z,3.80
2019-04-14T23:06:57.988Z,3.70
2019-04-14T23:09:28.061Z,3.70
2019-04-14T23:12:20.521Z,3.70
2019-04-14T23:14:53.611Z,3.70
2019-04-14T23:17:34.256Z,3.70
2019-04-14T23:20:22.981Z,3.60
2019-04-14T23:22:52.357Z,3.60
2019-04-14T23:25:33.860Z,3.60
2019-04-14T23:28:03.915Z,3.60
2019-04-14T23:30:33.984Z,3.50
2019-04-14T23:33:07.830Z,3.50
2019-04-14T23:35:36.273Z,3.50
2019-04-14T23:38:10.222Z,3.40
2019-04-14T23:40:39.934Z,3.40
2019-04-14T23:43:08.377Z,3.40
2019-04-14T23:45:42.400Z,3.30
2019-04-14T23:48:15.355Z,3.30
2019-04-14T23:50:49.930Z,3.30
2019-04-14T23:53:21.071Z,3.40
2019-04-14T23:55:57.008Z,3.40
2019-04-14T23:58:39.146Z,3.40
